Time;durP1;ratioP1;P1;durP2;ratioP2;P2;SDS_P1;SDS_P2;PMS_P1;PMS_P2;Temp;Humidity;BMP_temperature;BMP_pressure;BME280_temperature;BME280_humidity;BME280_pressure;Samples;Min_cycle;Max_cycle;Signal;HPM_P1;HPM_P2
2022/03/11 00:01:37;;;;;;;15.90;15.00;;;;;;;-6.94;74.74;102119.16;5034855;28;20075;-65
2022/03/11 00:04:02;;;;;;;15.32;14.43;;;;;;;-6.92;74.69;102126.88;5043371;28;20029;-64
2022/03/11 00:06:28;;;;;;;15.07;14.23;;;;;;;-6.96;74.17;102120.91;5031680;28;20029;-64
2022/03/11 00:08:54;;;;;;;16.60;15.48;;;;;;;-7.00;74.24;102116.66;5035619;28;20436;-64
2022/03/11 00:11:19;;;;;;;15.20;14.35;;;;;;;-7.20;74.26;102109.22;5031639;28;20099;-66
2022/03/11 00:13:44;;;;;;;15.57;14.68;;;;;;;-7.07;74.49;102107.31;5025885;28;20080;-65
2022/03/11 00:16:10;;;;;;;16.10;15.10;;;;;;;-7.07;74.50;102136.53;5035954;28;20472;-64
2022/03/11 00:18:36;;;;;;;16.05;14.98;;;;;;;-7.11;74.40;102123.72;5036884;28;20025;-66
2022/03/11 00:21:01;;;;;;;16.33;15.32;;;;;;;-7.08;74.60;102123.69;5048451;28;20047;-66
2022/03/11 00:23:27;;;;;;;16.88;15.77;;;;;;;-7.11;74.71;102127.16;5049908;28;20349;-66
2022/03/11 00:25:52;;;;;;;15.65;14.75;;;;;;;-7.14;74.96;102119.47;5030453;28;20412;-66
2022/03/11 00:28:17;;;;;;;17.35;16.23;;;;;;;-7.15;74.27;102120.34;5032425;28;20833;-66
2022/03/11 00:30:43;;;;;;;15.85;14.85;;;;;;;-7.28;74.23;102100.75;5040085;28;20037;-66
2022/03/11 00:33:08;;;;;;;17.88;16.67;;;;;;;-7.23;74.50;102096.41;5030455;28;20022;-66
2022/03/11 00:35:35;;;;;;;17.35;16.15;;;;;;;-7.27;74.44;102097.31;5031058;28;20041;-66
2022/03/11 00:38:00;;;;;;;16.67;15.68;;;;;;;-7.22;74.86;102108.41;5041426;28;20036;-66
2022/03/11 00:40:26;;;;;;;16.73;15.63;;;;;;;-7.29;74.96;102096.47;5051189;28;20033;-66
2022/03/11 00:42:52;;;;;;;16.85;15.85;;;;;;;-7.30;74.54;102105.09;5050217;28;20033;-65
2022/03/11 00:45:17;;;;;;;17.33;16.33;;;;;;;-7.29;74.06;102111.94;5035686;28;20563;-66
2022/03/11 00:47:43;;;;;;;17.77;16.58;;;;;;;-7.32;74.38;102109.44;5026365;28;20029;-67
2022/03/11 00:50:09;;;;;;;15.98;15.07;;;;;;;-7.51;74.68;102080.47;5040088;28;20071;-67
2022/03/11 00:52:35;;;;;;;17.10;16.10;;;;;;;-7.41;74.66;102105.25;5033990;28;20033;-67
2022/03/11 00:55:02;;;;;;;17.15;16.15;;;;;;;-7.37;74.82;102109.47;5049176;28;20045;-67
2022/03/11 00:57:28;;;;;;;16.27;15.32;;;;;;;-7.40;74.67;102104.38;5052709;28;20472;-66
2022/03/11 00:59:53;;;;;;;15.27;14.45;;;;;;;-7.38;74.60;102106.94;5032082;28;20033;-66
2022/03/11 01:02:19;;;;;;;16.75;15.70;;;;;;;-7.39;74.96;102102.66;5035997;28;20022;-66
2022/03/11 01:04:47;;;;;;;16.27;15.38;;;;;;;-7.45;75.08;102103.59;5042388;28;20033;-66
2022/03/11 01:07:12;;;;;;;16.52;15.52;;;;;;;-7.49;75.31;102107.09;5035144;28;20033;-65
2022/03/11 01:09:38;;;;;;;16.70;15.70;;;;;;;-7.47;75.29;102109.66;5040890;28;20087;-66
2022/03/11 01:12:03;;;;;;;16.20;15.30;;;;;;;-7.53;75.46;102105.41;5055102;28;20032;-66
2022/03/11 01:14:29;;;;;;;15.50;14.60;;;;;;;-7.53;75.71;102105.41;5043754;28;20033;-66
2022/03/11 01:16:54;;;;;;;16.70;15.70;;;;;;;-7.59;75.73;102108.91;5043713;28;20391;-66
2022/03/11 01:19:20;;;;;;;16.92;15.82;;;;;;;-7.55;75.42;102102.88;5033904;28;20446;-66
2022/03/11 01:21:45;;;;;;;16.02;15.13;;;;;;;-7.52;75.49;102120.00;5034771;28;20029;-66
2022/03/11 01:24:10;;;;;;;17.75;16.73;;;;;;;-7.60;74.83;102094.34;5034920;28;20100;-66
2022/03/11 01:26:37;;;;;;;15.63;14.82;;;;;;;-7.53;75.07;102106.28;5034830;28;20029;-66
2022/03/11 01:29:03;;;;;;;16.25;15.38;;;;;;;-7.56;74.35;102103.75;5026924;28;20504;-67
2022/03/11 01:31:28;;;;;;;15.70;14.82;;;;;;;-7.54;74.29;102121.75;5052330;28;20025;-66
2022/03/11 01:33:54;;;;;;;15.90;15.00;;;;;;;-7.53;74.00;102120.88;5052984;28;20044;-67
2022/03/11 01:36:20;;;;;;;17.27;16.38;;;;;;;-7.56;73.41;102119.22;5050193;28;20033;-66
2022/03/11 01:38:46;;;;;;;16.38;15.48;;;;;;;-7.57;73.79;102111.47;5045576;28;20040;-66
2022/03/11 01:41:12;;;;;;;15.90;15.00;;;;;;;-7.51;73.13;102119.13;5052458;28;20021;-66
2022/03/11 01:44:00;;;;;;;15.80;14.93;;;;;;;-7.55;73.68;102112.34;5026801;28;20032;-66
2022/03/11 01:46:28;;;;;;;16.38;15.38;;;;;;;-7.54;73.85;102116.59;5025240;28;20028;-66
2022/03/11 01:48:53;;;;;;;15.70;14.73;;;;;;;-7.60;73.69;102124.41;5034092;28;20026;-66
2022/03/11 01:51:19;;;;;;;15.98;15.00;;;;;;;-7.74;73.63;102103.13;5043730;28;20039;-66
2022/03/11 01:53:45;;;;;;;15.27;14.48;;;;;;;-7.57;74.01;102129.50;5051598;28;20036;-66
2022/03/11 01:56:11;;;;;;;16.42;15.43;;;;;;;-7.63;73.70;102133.03;5028460;28;20049;-66
2022/03/11 01:58:38;;;;;;;16.08;15.18;;;;;;;-7.68;73.90;102126.25;5038228;28;20548;-66
2022/03/11 02:01:04;;;;;;;16.08;15.18;;;;;;;-7.65;74.17;102134.75;5042683;28;20030;-65
2022/03/11 02:03:30;;;;;;;17.08;16.08;;;;;;;-7.66;73.88;102125.34;5032561;28;20029;-65
2022/03/11 02:05:55;;;;;;;16.08;15.20;;;;;;;-7.67;73.47;102133.09;5034088;28;20036;-65
2022/03/11 02:08:21;;;;;;;16.60;15.60;;;;;;;-7.68;73.63;102127.09;5034194;28;20017;-65
2022/03/11 02:10:46;;;;;;;15.93;15.07;;;;;;;-7.83;74.01;102104.09;5032180;28;20052;-65
2022/03/11 02:13:12;;;;;;;16.83;15.90;;;;;;;-7.79;74.03;102121.19;5033862;28;20109;-65
2022/03/11 02:15:37;;;;;;;16.88;15.98;;;;;;;-7.70;74.14;102120.25;5033972;28;20033;-65
2022/03/11 02:18:03;;;;;;;17.70;16.70;;;;;;;-7.82;73.83;102116.94;5033249;28;20030;-66
2022/03/11 02:20:29;;;;;;;17.88;16.90;;;;;;;-7.78;73.79;102120.34;5034143;28;20548;-66
2022/03/11 02:22:57;;;;;;;18.40;17.35;;;;;;;-7.77;73.37;102118.63;5033566;28;20096;-66
2022/03/11 02:25:22;;;;;;;17.83;16.83;;;;;;;-7.88;72.57;102096.41;5037378;28;20029;-66
2022/03/11 02:27:48;;;;;;;17.45;16.45;;;;;;;-7.77;72.81;102122.06;5032730;28;20029;-66
2022/03/11 02:30:20;;;;;;;17.63;16.60;;;;;;;-7.75;73.27;102120.31;5033648;28;20028;-66
2022/03/11 02:32:45;;;;;;;18.35;17.15;;;;;;;-7.78;72.88;102122.94;5053084;28;20391;-66
2022/03/11 02:35:12;;;;;;;16.40;15.50;;;;;;;-7.79;72.49;102108.31;5053100;28;20053;-65
2022/03/11 02:37:38;;;;;;;17.02;16.13;;;;;;;-7.74;71.76;102122.00;5045837;28;20017;-65
2022/03/11 02:40:05;;;;;;;17.80;16.80;;;;;;;-7.75;71.80;102122.88;5025380;28;20025;-66
2022/03/11 02:42:31;;;;;;;18.33;17.20;;;;;;;-7.75;72.05;102122.88;5032708;28;20037;-65
2022/03/11 02:45:00;;;;;;;18.08;16.98;;;;;;;-7.82;71.93;102106.66;5030023;28;20052;-66
2022/03/11 02:47:27;;;;;;;17.00;16.00;;;;;;;-7.75;71.76;102119.47;5052865;28;20089;-65
2022/03/11 02:49:53;;;;;;;18.35;17.15;;;;;;;-7.80;72.22;102107.47;5050278;28;20025;-66
2022/03/11 02:52:18;;;;;;;18.15;16.98;;;;;;;-7.79;72.20;102121.19;5049328;28;20044;-65
2022/03/11 02:54:43;;;;;;;16.95;15.95;;;;;;;-7.76;71.54;102108.31;5024772;28;20404;-66
2022/03/11 02:57:09;;;;;;;17.90;16.80;;;;;;;-7.76;71.85;102108.31;5021688;28;20071;-65
2022/03/11 02:59:34;;;;;;;17.85;16.80;;;;;;;-7.78;71.87;102107.47;5028946;28;20075;-65
2022/03/11 03:02:00;;;;;;;16.90;15.90;;;;;;;-7.75;71.84;102106.56;5021925;28;20038;-66
2022/03/11 03:04:25;;;;;;;17.13;16.13;;;;;;;-7.73;71.67;102103.09;5019697;28;20017;-66
2022/03/11 03:06:51;;;;;;;17.88;16.77;;;;;;;-7.83;71.32;102104.94;5034829;28;20025;-65
2022/03/11 03:09:16;;;;;;;16.90;15.93;;;;;;;-7.81;71.72;102102.34;5048431;28;20025;-65
2022/03/11 03:11:42;;;;;;;17.92;16.92;;;;;;;-7.76;71.59;102118.59;5052320;28;20503;-65
2022/03/11 03:14:07;;;;;;;17.65;16.55;;;;;;;-7.84;71.24;102110.97;5052338;28;20025;-65
2022/03/11 03:16:32;;;;;;;17.88;16.77;;;;;;;-7.80;71.31;102114.34;5051932;28;20090;-66
2022/03/11 03:18:58;;;;;;;17.75;16.65;;;;;;;-7.83;71.28;102119.56;5038224;28;20044;-66
2022/03/11 03:21:26;;;;;;;17.30;16.30;;;;;;;-7.87;71.71;102118.72;5025353;28;20026;-66
2022/03/11 03:23:53;;;;;;;16.42;15.52;;;;;;;-7.88;71.51;102111.03;5032220;28;20109;-64
2022/03/11 03:26:19;;;;;;;17.10;16.10;;;;;;;-7.88;71.88;102122.16;5051790;28;20029;-65
2022/03/11 03:28:45;;;;;;;16.88;15.88;;;;;;;-7.92;72.12;102117.94;5032430;28;20024;-66
2022/03/11 03:31:10;;;;;;;17.45;16.42;;;;;;;-7.95;72.07;102117.97;5033571;28;20475;-65
2022/03/11 03:33:36;;;;;;;17.05;16.08;;;;;;;-7.97;72.02;102114.56;5031974;28;20120;-64
2022/03/11 03:36:02;;;;;;;19.52;18.20;;;;;;;-7.96;72.00;102123.13;5021166;28;20028;-64
2022/03/11 03:38:27;;;;;;;16.23;15.38;;;;;;;-8.02;72.06;102118.91;5040221;28;20025;-66
2022/03/11 03:40:54;;;;;;;15.68;14.82;;;;;;;-7.99;71.89;102124.03;5044497;28;20053;-66
2022/03/11 03:43:20;;;;;;;16.65;15.75;;;;;;;-8.04;71.82;102114.66;5041636;28;20033;-66
2022/03/11 03:45:45;;;;;;;16.65;15.75;;;;;;;-8.15;71.33;102099.31;5047596;28;20033;-66
2022/03/11 03:48:11;;;;;;;16.60;15.65;;;;;;;-8.03;70.83;102124.06;5031985;28;20045;-67
2022/03/11 03:50:36;;;;;;;17.27;16.33;;;;;;;-8.09;71.51;102114.69;5028535;28;20032;-67
2022/03/11 03:53:02;;;;;;;16.85;15.85;;;;;;;-8.11;70.96;102127.59;5021432;28;20087;-66
2022/03/11 03:55:28;;;;;;;18.02;16.98;;;;;;;-8.07;71.26;102126.69;5031885;28;20037;-67
2022/03/11 03:57:53;;;;;;;16.70;15.80;;;;;;;-8.08;71.63;102126.69;5032227;28;20029;-66
2022/03/11 04:00:18;;;;;;;17.70;16.67;;;;;;;-8.10;71.08;102129.28;5030475;28;20107;-66
2022/03/11 04:02:48;;;;;;;17.85;16.75;;;;;;;-8.15;70.83;102125.94;5029940;28;20370;-66
2022/03/11 04:05:14;;;;;;;17.52;16.58;;;;;;;-8.12;71.19;102136.19;5033130;28;20055;-66
2022/03/11 04:07:44;;;;;;;18.10;17.02;;;;;;;-8.14;71.57;102122.50;5046506;28;20041;-66
2022/03/11 04:10:11;;;;;;;17.25;16.25;;;;;;;-8.14;71.71;102132.78;5039542;28;20479;-64
2022/03/11 04:12:38;;;;;;;18.10;17.00;;;;;;;-8.13;71.50;102131.06;5051436;28;20442;-64
2022/03/11 04:15:04;;;;;;;17.63;16.52;;;;;;;-8.16;70.80;102129.34;5043927;28;20460;-65
2022/03/11 04:17:30;;;;;;;17.50;16.50;;;;;;;-8.19;70.82;102126.81;5036216;28;20034;-65
2022/03/11 04:19:55;;;;;;;17.63;16.52;;;;;;;-8.12;70.53;102131.03;5031380;28;20191;-65
2022/03/11 04:22:20;;;;;;;17.33;16.30;;;;;;;-8.21;70.45;102130.28;5030852;28;20442;-66
2022/03/11 04:24:46;;;;;;;17.05;16.05;;;;;;;-8.18;70.36;102127.69;5037320;28;20460;-66
2022/03/11 04:27:12;;;;;;;16.90;15.93;;;;;;;-8.16;69.93;102131.94;5034889;28;20033;-65
2022/03/11 04:29:38;;;;;;;17.65;16.65;;;;;;;-8.11;69.72;102130.16;5031404;28;20068;-66
2022/03/11 04:32:05;;;;;;;17.35;16.35;;;;;;;-8.12;70.17;102133.63;5023318;28;20121;-64
2022/03/11 04:34:30;;;;;;;16.85;15.95;;;;;;;-8.08;69.21;102130.16;5030873;28;20057;-66
2022/03/11 04:36:56;;;;;;;18.15;17.05;;;;;;;-8.08;69.48;102135.31;5031565;28;20044;-66
2022/03/11 04:39:26;;;;;;;18.20;17.05;;;;;;;-8.08;69.71;102132.72;5031229;28;20392;-64
2022/03/11 04:41:53;;;;;;;17.63;16.63;;;;;;;-8.09;69.03;102127.56;5031393;28;20515;-65
2022/03/11 04:44:19;;;;;;;18.08;16.90;;;;;;;-7.99;68.77;102136.06;5031266;28;20028;-67
2022/03/11 04:46:46;;;;;;;19.23;18.05;;;;;;;-7.93;69.06;102135.97;5035142;28;20112;-66
2022/03/11 04:49:11;;;;;;;16.52;15.63;;;;;;;-7.92;68.07;102128.25;5031146;28;20079;-66
2022/03/11 04:51:38;;;;;;;18.27;17.08;;;;;;;-7.87;67.85;102136.75;5031001;28;20440;-66
2022/03/11 04:54:04;;;;;;;17.77;16.63;;;;;;;-7.71;67.47;102145.19;5030582;28;20029;-66
2022/03/11 04:56:31;;;;;;;16.67;15.68;;;;;;;-7.69;66.60;102135.69;5031238;28;20033;-66
2022/03/11 04:58:56;;;;;;;16.38;15.38;;;;;;;-7.55;66.29;102141.53;5029811;28;20041;-67
2022/03/11 05:01:21;;;;;;;17.25;16.17;;;;;;;-7.51;65.72;102144.91;5013919;28;20055;-66
2022/03/11 05:03:47;;;;;;;15.82;14.93;;;;;;;-7.49;65.73;102142.28;5031322;28;20072;-66
2022/03/11 05:06:13;;;;;;;15.38;14.45;;;;;;;-7.42;64.93;102136.19;5029807;28;20476;-65
2022/03/11 05:08:38;;;;;;;17.02;15.85;;;;;;;-7.33;64.46;102138.66;5030916;28;20017;-66
2022/03/11 05:11:04;;;;;;;16.48;15.50;;;;;;;-7.30;64.68;102134.31;5029427;28;20030;-66
2022/03/11 05:13:29;;;;;;;15.50;14.60;;;;;;;-7.25;64.14;102139.41;5025522;28;20117;-66
2022/03/11 05:15:55;;;;;;;16.25;15.25;;;;;;;-7.07;63.69;102140.84;5021216;28;20104;-65
2022/03/11 05:18:20;;;;;;;16.08;15.05;;;;;;;-6.88;63.64;102146.59;5013247;28;20133;-65
2022/03/11 05:20:46;;;;;;;15.23;14.32;;;;;;;-6.87;63.19;102137.97;5030875;28;20040;-66
2022/03/11 05:23:12;;;;;;;15.30;14.38;;;;;;;-7.00;63.08;102132.16;5028503;28;20463;-66
2022/03/11 05:25:38;;;;;;;15.07;14.18;;;;;;;-6.91;62.33;102141.47;5050657;28;20070;-65
2022/03/11 05:28:04;;;;;;;15.50;14.52;;;;;;;-6.79;61.77;102128.38;5033191;28;20033;-67
2022/03/11 05:30:30;;;;;;;15.00;14.07;;;;;;;-6.55;60.82;102120.22;5031067;28;20021;-66
2022/03/11 05:32:55;;;;;;;14.75;13.88;;;;;;;-6.28;60.72;102138.69;5027581;28;20128;-66
2022/03/11 05:35:21;;;;;;;14.82;13.93;;;;;;;-5.50;59.27;102147.47;5032408;28;20590;-65
2022/03/11 05:37:46;;;;;;;14.45;13.55;;;;;;;-5.07;56.48;102144.75;5034527;28;20052;-65
2022/03/11 05:40:12;;;;;;;14.98;13.93;;;;;;;-3.54;54.21;102151.16;5033618;28;20037;-65
2022/03/11 05:42:38;;;;;;;12.95;12.05;;;;;;;-1.13;46.46;102151.56;5026209;28;20083;-67
2022/03/11 05:45:04;;;;;;;11.25;10.55;;;;;;;-3.93;51.48;102154.84;5035599;28;20033;-66
2022/03/11 05:47:30;;;;;;;12.18;11.38;;;;;;;-4.67;53.58;102143.84;5036160;28;20045;-66
2022/03/11 05:49:55;;;;;;;12.50;11.63;;;;;;;-4.89;54.76;102144.34;5030784;28;20022;-66
2022/03/11 05:52:24;;;;;;;12.52;11.73;;;;;;;-4.69;54.83;102137.84;5032198;28;20084;-66
2022/03/11 05:54:49;;;;;;;11.23;10.63;;;;;;;-5.07;55.13;102149.94;5014276;28;20076;-67
2022/03/11 05:57:15;;;;;;;11.80;11.10;;;;;;;-4.96;54.51;102140.22;5034769;28;20033;-67
2022/03/11 05:59:40;;;;;;;12.13;11.43;;;;;;;-4.82;54.55;102140.72;5031445;28;20106;-65
2022/03/11 06:02:06;;;;;;;12.77;11.98;;;;;;;-4.75;54.47;102144.88;5033018;28;20030;-67
2022/03/11 06:04:32;;;;;;;12.10;11.40;;;;;;;-4.65;52.76;102142.91;5023345;28;20037;-67
2022/03/11 06:06:57;;;;;;;11.90;11.20;;;;;;;-4.68;52.69;102136.97;5033995;28;20057;-66
2022/03/11 06:09:23;;;;;;;11.48;10.88;;;;;;;-4.15;52.01;102142.50;5028859;28;20437;-66
2022/03/11 06:11:48;;;;;;;12.30;11.55;;;;;;;-4.89;52.31;102122.81;5020552;28;20037;-66
2022/03/11 06:14:14;;;;;;;11.93;11.23;;;;;;;-4.63;52.46;102140.28;5019624;28;20396;-66
2022/03/11 06:16:39;;;;;;;13.20;12.30;;;;;;;-4.96;52.65;102118.66;5033303;28;20109;-66
2022/03/11 06:19:05;;;;;;;11.95;11.25;;;;;;;-4.63;52.21;102151.47;5026438;28;20088;-67
2022/03/11 06:21:30;;;;;;;12.95;12.15;;;;;;;-4.49;50.90;102133.00;5033360;28;20025;-67
2022/03/11 06:23:57;;;;;;;12.90;12.05;;;;;;;-4.02;50.81;102149.06;5014915;28;20053;-66
2022/03/11 06:26:23;;;;;;;14.07;12.98;;;;;;;-3.94;49.91;102152.28;5029981;28;20062;-67
2022/03/11 06:28:49;;;;;;;12.35;11.55;;;;;;;-3.78;51.12;102148.38;5032591;28;20026;-67
2022/03/11 06:31:14;;;;;;;11.50;10.80;;;;;;;-4.02;50.16;102138.69;5032699;28;20483;-66
2022/03/11 06:33:41;;;;;;;11.43;10.73;;;;;;;-4.30;49.96;102149.78;5045268;28;20089;-67
2022/03/11 06:36:06;;;;;;;13.43;12.43;;;;;;;-4.34;52.89;102142.13;5033735;28;20051;-68
2022/03/11 06:38:32;;;;;;;12.02;11.23;;;;;;;-3.32;51.36;102134.06;5027370;28;20026;-67
2022/03/11 06:40:58;;;;;;;11.40;10.70;;;;;;;-3.20;49.58;102146.66;5040585;28;20737;-66
2022/03/11 06:43:23;;;;;;;10.93;10.32;;;;;;;-2.59;48.33;102138.66;5033302;28;20029;-70
2022/03/11 06:45:49;;;;;;;10.95;10.25;;;;;;;-2.73;48.61;102135.66;5035579;28;20063;-68
2022/03/11 06:48:18;;;;;;;10.70;10.05;;;;;;;-2.39;49.03;102140.59;5033919;28;20510;-70
2022/03/11 06:50:44;;;;;;;11.75;10.95;;;;;;;-2.90;46.88;102142.25;5034687;28;20124;-70
2022/03/11 06:53:09;;;;;;;10.23;9.63;;;;;;;-2.83;46.14;102127.34;5032172;28;20028;-70
2022/03/11 06:55:35;;;;;;;9.77;9.27;;;;;;;-2.49;46.09;102129.69;5055163;28;20443;-69
2022/03/11 06:58:00;;;;;;;9.32;8.82;;;;;;;-2.04;45.84;102136.78;5045758;28;20025;-69
2022/03/11 07:00:26;;;;;;;12.27;11.38;;;;;;;-2.49;46.14;102123.63;5038471;28;20033;-66
2022/03/11 07:02:51;;;;;;;10.50;9.80;;;;;;;-2.63;45.43;102124.94;5043927;28;20036;-65
2022/03/11 07:05:17;;;;;;;10.77;10.07;;;;;;;-2.67;44.95;102112.94;5038432;28;20403;-66
2022/03/11 07:07:42;;;;;;;10.70;10.05;;;;;;;-2.45;45.01;102113.06;5038400;28;20427;-66
2022/03/11 07:10:12;;;;;;;11.13;10.43;;;;;;;-1.95;44.71;102121.69;5051126;28;20503;-65
2022/03/11 07:12:38;;;;;;;10.80;10.10;;;;;;;-2.64;45.02;102094.69;5041978;28;20017;-65
2022/03/11 07:15:08;;;;;;;12.00;11.15;;;;;;;-2.37;44.11;102113.66;5032346;28;20100;-66
2022/03/11 07:17:34;;;;;;;10.30;9.70;;;;;;;-1.92;42.59;102105.13;5035834;28;20037;-66
2022/03/11 07:19:59;;;;;;;10.32;9.73;;;;;;;-2.05;43.47;102098.69;5033961;28;20061;-66
2022/03/11 07:22:26;;;;;;;11.18;10.45;;;;;;;-1.67;42.81;102086.88;5026395;28;20022;-65
2022/03/11 07:24:51;;;;;;;10.40;9.80;;;;;;;-1.11;41.10;102089.00;5036271;28;20049;-66
2022/03/11 07:27:17;;;;;;;9.63;9.13;;;;;;;-1.20;41.12;102089.38;5041692;28;20025;-66
2022/03/11 07:29:42;;;;;;;10.15;9.55;;;;;;;-1.61;41.70;102085.81;5037064;28;20012;-65
2022/03/11 07:32:09;;;;;;;9.93;9.38;;;;;;;-1.76;41.15;102093.28;5034255;28;20123;-65
2022/03/11 07:34:35;;;;;;;11.23;10.52;;;;;;;-1.65;41.49;102085.06;5030870;28;20458;-66
2022/03/11 07:37:02;;;;;;;10.48;9.82;;;;;;;-2.57;41.98;102070.19;5025455;28;20029;-65
2022/03/11 07:39:28;;;;;;;10.32;9.75;;;;;;;-2.47;42.02;102060.31;5031432;28;20033;-67
2022/03/11 07:41:53;;;;;;;10.93;10.23;;;;;;;-2.17;41.58;102073.13;5018969;28;20370;-68
2022/03/11 07:44:20;;;;;;;10.93;10.27;;;;;;;-1.48;40.09;102063.56;5033342;28;20453;-67
2022/03/11 07:46:46;;;;;;;10.48;9.88;;;;;;;-2.24;41.41;102067.28;5043088;28;20021;-67
2022/03/11 07:49:12;;;;;;;10.40;9.80;;;;;;;-2.81;42.25;102063.22;5027497;28;20036;-67
2022/03/11 07:51:38;;;;;;;10.35;9.75;;;;;;;-0.64;39.20;102055.81;5025907;28;20519;-66
2022/03/11 07:54:03;;;;;;;10.10;9.50;;;;;;;-1.02;39.33;102057.41;5026628;28;20033;-67
2022/03/11 07:56:29;;;;;;;9.88;9.27;;;;;;;-0.58;37.64;102062.53;5041654;28;20029;-68
2022/03/11 07:58:58;;;;;;;10.50;9.80;;;;;;;-0.57;37.87;102052.03;5030911;28;20029;-68
2022/03/11 08:01:24;;;;;;;9.48;8.98;;;;;;;-0.70;37.29;102043.03;5033665;28;20021;-68
2022/03/11 08:03:49;;;;;;;9.65;9.10;;;;;;;-0.63;37.29;102035.81;5042220;28;20424;-67
2022/03/11 08:06:15;;;;;;;10.75;10.05;;;;;;;-0.99;36.68;102039.03;5041204;28;20028;-69
2022/03/11 08:08:42;;;;;;;9.90;9.30;;;;;;;-0.64;36.54;102047.13;5020260;28;20028;-66
2022/03/11 08:11:08;;;;;;;10.90;10.20;;;;;;;-0.90;37.39;102036.03;5025318;28;20021;-69
2022/03/11 08:13:34;;;;;;;9.98;9.38;;;;;;;-0.88;37.39;102022.97;5026385;28;20059;-67
2022/03/11 08:16:00;;;;;;;9.70;9.20;;;;;;;-0.62;36.32;102046.16;5027509;28;20378;-67
2022/03/11 08:18:26;;;;;;;9.95;9.38;;;;;;;-0.91;36.70;102007.47;5018803;28;20477;-67
2022/03/11 08:20:51;;;;;;;9.90;9.30;;;;;;;-0.65;36.95;102032.41;5034215;28;20039;-67
2022/03/11 08:23:17;;;;;;;10.75;10.05;;;;;;;-0.89;36.57;102014.28;5031429;28;20060;-68
2022/03/11 08:25:43;;;;;;;10.85;10.15;;;;;;;-0.38;36.90;102027.75;5036399;28;20029;-68
2022/03/11 08:28:10;;;;;;;9.98;9.38;;;;;;;-0.66;37.08;102031.56;5030836;28;20041;-68
2022/03/11 08:30:40;;;;;;;9.68;9.18;;;;;;;-0.64;36.63;102021.09;5028541;28;20041;-69
2022/03/11 08:33:05;;;;;;;10.23;9.63;;;;;;;-1.01;37.63;102024.41;5021823;28;20061;-69
2022/03/11 08:35:31;;;;;;;10.52;9.88;;;;;;;-1.02;37.24;102030.53;5027273;28;20065;-68
2022/03/11 08:37:58;;;;;;;9.93;9.32;;;;;;;-0.58;36.67;102031.25;5028819;28;20064;-67
2022/03/11 08:40:27;;;;;;;10.68;9.98;;;;;;;-1.69;37.35;102039.22;5036358;28;20025;-67
2022/03/11 08:42:53;;;;;;;11.35;10.57;;;;;;;-0.92;36.10;102027.44;5027157;28;20049;-67
2022/03/11 08:45:21;;;;;;;11.18;10.43;;;;;;;0.00;34.85;102039.09;5017953;28;20370;-68
2022/03/11 08:47:47;;;;;;;9.90;9.30;;;;;;;-0.63;34.59;102027.97;5022136;28;20040;-67
2022/03/11 08:50:13;;;;;;;10.70;10.02;;;;;;;-0.84;34.51;102020.16;5026757;28;20419;-69
2022/03/11 08:52:40;;;;;;;9.82;9.23;;;;;;;-0.47;34.98;102020.34;5018568;28;20029;-69
2022/03/11 08:55:06;;;;;;;10.77;10.07;;;;;;;-0.52;34.99;102017.91;5029018;28;20060;-67
2022/03/11 08:57:31;;;;;;;10.38;9.75;;;;;;;-0.28;34.60;102024.69;5027131;28;20037;-68
2022/03/11 08:59:57;;;;;;;10.63;9.93;;;;;;;-0.36;34.18;102016.34;5032551;28;20040;-68
2022/03/11 09:02:23;;;;;;;10.65;9.95;;;;;;;-0.77;34.29;102010.31;5039906;28;20076;-69
2022/03/11 09:04:49;;;;;;;9.85;9.25;;;;;;;-0.26;34.47;102008.97;5027644;28;20036;-69
2022/03/11 09:07:15;;;;;;;10.60;9.90;;;;;;;0.32;33.50;101989.78;5022555;28;20025;-70
2022/03/11 09:09:41;;;;;;;9.52;9.00;;;;;;;0.44;33.71;102015.28;5033155;28;20448;-68
2022/03/11 09:12:06;;;;;;;10.10;9.50;;;;;;;-0.15;34.10;102004.09;5026613;28;20432;-69
2022/03/11 09:14:32;;;;;;;9.73;9.23;;;;;;;0.21;33.85;102009.38;5031979;28;20044;-68
2022/03/11 09:16:59;;;;;;;9.65;9.05;;;;;;;-0.09;33.42;102000.38;5019575;28;20795;-69
2022/03/11 09:19:24;;;;;;;9.73;9.20;;;;;;;-0.11;34.00;102000.44;5043192;28;20389;-68
2022/03/11 09:21:49;;;;;;;9.32;8.82;;;;;;;-0.38;34.05;101999.91;5034498;28;20037;-68
2022/03/11 09:24:16;;;;;;;9.40;8.90;;;;;;;-0.33;33.21;101995.34;5035394;28;20550;-69
2022/03/11 09:26:41;;;;;;;9.85;9.27;;;;;;;0.16;32.32;101982.69;5034702;28;20577;-69
2022/03/11 09:29:07;;;;;;;10.68;9.98;;;;;;;0.81;32.13;101990.88;5026482;28;20117;-66
2022/03/11 09:31:34;;;;;;;10.20;9.60;;;;;;;0.36;31.82;101967.81;5033692;28;20044;-69
2022/03/11 09:33:59;;;;;;;10.75;10.05;;;;;;;0.37;32.16;101977.34;5034216;28;20045;-69
2022/03/11 09:36:26;;;;;;;10.57;9.88;;;;;;;0.25;31.96;101971.78;5030096;28;20029;-69
2022/03/11 09:38:51;;;;;;;9.50;8.93;;;;;;;-0.57;32.84;101988.63;5030585;28;20044;-67
2022/03/11 09:41:20;;;;;;;9.57;9.00;;;;;;;-0.24;32.33;101969.78;5044885;28;20412;-65
2022/03/11 09:43:46;;;;;;;9.65;9.13;;;;;;;-0.41;32.34;101986.19;5041977;28;20036;-68
2022/03/11 09:46:14;;;;;;;10.25;9.65;;;;;;;0.13;32.12;101969.75;5045814;28;20124;-68
2022/03/11 09:48:41;;;;;;;10.68;9.98;;;;;;;0.13;31.71;101969.75;5025947;28;20100;-69
2022/03/11 09:51:09;;;;;;;9.73;9.13;;;;;;;-0.25;31.66;101955.03;5033674;28;20102;-68
2022/03/11 09:53:35;;;;;;;10.07;9.48;;;;;;;-0.26;31.62;101967.25;5029458;28;20179;-68
2022/03/11 09:56:01;;;;;;;9.90;9.30;;;;;;;-0.29;31.96;101964.78;5029665;28;20041;-68
2022/03/11 09:58:26;;;;;;;10.73;10.02;;;;;;;0.18;31.91;101966.94;5032264;28;20029;-70
2022/03/11 10:00:52;;;;;;;10.05;9.45;;;;;;;-0.33;30.95;101956.25;5031694;28;20385;-68
2022/03/11 10:03:17;;;;;;;9.30;8.80;;;;;;;-0.49;31.14;101965.66;5021316;28;20043;-67
2022/03/11 10:05:51;;;;;;;10.13;9.52;;;;;;;-0.96;31.37;101960.75;5035680;28;20041;-69
2022/03/11 10:08:29;;;;;;;10.15;9.55;;;;;;;-0.80;31.93;101958.38;5032880;28;20113;-69
2022/03/11 10:10:54;;;;;;;9.90;9.30;;;;;;;-0.86;31.96;101967.28;5042023;28;20021;-69
2022/03/11 10:13:20;;;;;;;11.98;11.07;;;;;;;-0.37;31.87;101957.31;5029633;28;20132;-69
2022/03/11 10:15:45;;;;;;;9.63;9.02;;;;;;;-0.34;31.04;101944.13;5030658;28;20041;-67
2022/03/11 10:18:12;;;;;;;11.27;10.48;;;;;;;-0.38;31.76;101958.19;5031605;28;20136;-69
2022/03/11 10:20:37;;;;;;;11.90;11.02;;;;;;;-1.13;32.36;101945.00;5028628;28;20025;-68
2022/03/11 10:23:14;;;;;;;11.20;10.45;;;;;;;-1.22;33.81;101953.22;5031904;28;20036;-69
2022/03/11 10:25:39;;;;;;;10.95;10.25;;;;;;;-0.69;33.42;101940.47;5031335;28;20426;-69
2022/03/11 10:28:04;;;;;;;10.10;9.50;;;;;;;-0.53;34.47;101960.66;5023700;28;20029;-69
2022/03/11 10:30:33;;;;;;;10.02;9.43;;;;;;;-0.78;33.82;101942.66;5030153;28;20025;-69
2022/03/11 10:33:02;;;;;;;10.23;9.63;;;;;;;-1.14;35.15;101959.78;5031169;28;20029;-67
2022/03/11 10:35:34;;;;;;;11.70;10.85;;;;;;;-0.84;34.99;101967.22;5029380;28;20044;-67
2022/03/11 10:38:12;;;;;;;10.20;9.60;;;;;;;-0.18;34.04;101953.84;5027827;28;20060;-69
2022/03/11 10:40:51;;;;;;;10.07;9.48;;;;;;;-0.67;34.10;101951.69;5026375;28;20112;-68
2022/03/11 10:43:25;;;;;;;10.25;9.65;;;;;;;-0.86;34.27;101962.06;5022844;28;20480;-69
2022/03/11 10:45:57;;;;;;;10.00;9.40;;;;;;;-0.40;33.65;101948.78;5039041;28;20446;-69
2022/03/11 10:48:43;;;;;;;9.45;8.95;;;;;;;-0.36;34.12;101945.97;5020774;28;20465;-68
2022/03/11 10:51:23;;;;;;;10.13;9.52;;;;;;;-0.55;33.69;101963.34;5026094;28;20057;-67
2022/03/11 10:53:50;;;;;;;9.18;8.68;;;;;;;-1.22;34.34;101945.41;5027531;28;20036;-69
2022/03/11 10:56:35;;;;;;;10.88;10.18;;;;;;;-1.02;36.41;101955.00;5030251;28;20030;-69
2022/03/11 10:59:28;;;;;;;9.98;9.38;;;;;;;-1.37;37.20;101946.03;5030587;28;20320;-69
2022/03/11 11:01:57;;;;;;;10.90;10.20;;;;;;;-0.94;36.38;101947.69;5025981;28;20045;-69
2022/03/11 11:04:24;;;;;;;10.00;9.40;;;;;;;-0.75;36.32;101955.53;5027876;28;20392;-69
2022/03/11 11:06:50;;;;;;;9.65;9.13;;;;;;;-0.78;36.57;101950.47;5033497;28;20372;-67
2022/03/11 11:09:17;;;;;;;9.65;9.10;;;;;;;-0.43;35.87;101941.94;5026064;28;20096;-66